Relevés horaires Charleroi (Belgique)


Relevés horaires à Charleroi - Jeudi 10 Juin 2021
Heure UTC1 Température [°C] Vent [km/h] Hum. [%] Pres.4 [hPa] Visi. [Km] Nébu. [octa] Préc.5 [mm] Cond.
2m. Res. Ros. Dir.2 Vit. Moy. Raf.3
23:00 17.6 17.6 14.5 NNO 3.7 3.7 7.4 82 1021.4(0.8/3h) 20 2/8 -- --
22:00 18.3 18.3 14.4 NO 3.7 3.7 7.4 78 1021.3(0.8/3h) 20 2/8 -- --
21:00 19.8 19.8 12.6 OSO 3.7 5.6 9.3 63 1020.9(0.5/3h) 20 2/8 -- --
20:00 21.3 21.3 12.9 ONO 1.9 3.7 5.6 59 1020.3(0.1/3h) 20 4/8 -- --
19:00 22.9 22.9 12.5 NNO 3.7 5.6 9.3 52 1020.1(-0.5/3h) 20 5/8 -- --
18:00 23.7 23.7 13.6 ONO 3.7 9.3 16.7 53 1020(-0.9/3h) 20 5/8 0/12h
--
17:00 24.1 24.1 13.3 ONO 3.7 5.6 11.1 51 1020.2(-1.2/3h) 20 5/8 -- --
16:00 24.3 24.3 12.4 O 3.7 5.6 11.1 47 1020.5(-1.0/3h) 20 5/8 -- --
15:00 24.0 24.0 13.2 NO 5.6 9.3 16.7 51 1020.9(-1.1/3h) 20 5/8 -- --
14:00 24.2 24.2 13.4 O 7.4 9.3 16.7 51 1021.4(-1.0/3h) 20 5/8 -- --
13:00 24.0 24.0 12.8 OSO 9.3 9.3 13.0 50 1021.6(-0.7/3h) 20 5/8 -- --
12:00 23.4 23.4 12.4 O 3.7 7.4 13.0 50 1022.1(-0.3/3h) 20 5/8 0/6h
--
11:00 22.1 22.1 13.5 O 5.6 7.4 11.1 58 1022.6(0.6/3h) 20 5/8 -- --
10:00 22.2 22.2 12.6 O 7.4 7.4 13.0 55 1022.4(0.7/3h) 20 5/8 -- --
09:00 21.2 21.2 13.1 OSO 3.7 3.7 5.6 60 1022.5(0.7/3h) 20 4/8 -- --
08:00 20.2 20.2 11.9 SO 3.7 3.7 5.6 59 1022.1(0.4/3h) 20 2/8 -- --
07:00 18.4 18.4 12.1 S 3.7 3.7 5.6 67 1022(0.3/3h) 20 1/8 -- --
06:00 16.6 16.6 11.5 SO 3.7 5.6 7.4 72 1022.2(0.0/3h) 20 1/8 0/12h
--
05:00 15.1 15.1 11.7 SSO 1.9 3.7 5.6 80 1022.1(-0.3/3h) 20 1/8 -- --
04:00 14.6 14.6 11.2 SO 3.7 5.6 7.4 80 1022(-0.7/3h) 20 1/8 -- --
03:00 14.8 14.8 11.4 OSO 5.6 5.6 7.4 80 1022.3(-0.3/3h) 20 1/8 -- --
02:00 15.5 15.5 10.1 SO 3.7 3.7 7.4 70 1022.4(-0.4/3h) 20 1/8 -- --
01:00 15.7 15.7 10.3 SSO 3.7 3.7 3.7 70 1022.6(0.1/3h) 20 2/8 -- --
00:00 15.2 15.2 10.1 S 1.9 5.6 7.4 72 1022.6(-0.2/3h) 20 2/8 0/6h
0/24h
--

1 Coordinated Universal Time. Actuellement il est 07:00 locale et 05:00 UTC.

2 Le vent souffle depuis la direction indiquée vers la direction oposée.

3 Les rafales max. sont disponible 40 min après l'heure du relevé.

4 Pour les stations d'altitude (plus de 600m) le géopotentiel du niveau le plus proche de la pression obligatoire est indiqué.

5 Les stations disposant d'un diffuseur peuvent indiquer "trace". Cela signifie que des précipitations ont touchés le sol mais que la quantité est inférieure à 0.1 mm.

Récapitulatif de la journée
Température [°C] Vent [km/h] Ensoleillement4 [h] Precipitations totale5 [mm] Pression [Hpa]
Min1 Max.2 Moy.3 Max. Min Max.
13.4 25.0 5.7 16.7 0 h 0 min 0 1020.0 1022.6

1 Température minimale relevée entre 18:00 UTC la veille et 18:00 UTC le jour donné.

2 Température maximale relevée entre 06:00 UTC le jour donné et 06:00 UTC le lendemain.

3 Vent moyen de la journée basé sur les relevés horaires.

4 Ensoleillement en heures relevé entre 06:00 UTC la veille et 06:00 UTC le jour donné.

5 Précipitations totales tombées entre 06:00 UTC la jour donné et 06:00 UTC le lendemain.

Graphiques horaires